Time;durP1;ratioP1;P1;durP2;ratioP2;P2;SDS_P1;SDS_P2;PMS_P1;PMS_P2;Temp;Humidity;BMP_temperature;BMP_pressure;BME280_temperature;BME280_humidity;BME280_pressure;Samples;Min_cycle;Max_cycle;Signal;HPM_P1;HPM_P2
2023/12/16 00:00:39;;;;;;;3.00;1.30;;;7.10;99.90;;;;;;5043636;28;20043;-82
2023/12/16 00:03:05;;;;;;;7.07;1.55;;;7.10;99.90;;;;;;5046724;28;20043;-82
2023/12/16 00:05:31;;;;;;;4.60;1.15;;;7.10;99.90;;;;;;5047314;28;20044;-81
2023/12/16 00:07:56;;;;;;;5.35;0.90;;;7.10;99.90;;;;;;5048591;28;20484;-82
2023/12/16 00:10:22;;;;;;;5.47;1.13;;;7.10;99.90;;;;;;5046121;28;20025;-81
2023/12/16 00:12:48;;;;;;;4.45;0.88;;;7.10;99.90;;;;;;5048950;28;20043;-81
2023/12/16 00:15:14;;;;;;;4.35;0.63;;;7.10;99.90;;;;;;5047950;28;20060;-81
2023/12/16 00:17:40;;;;;;;1.98;0.50;;;7.10;99.90;;;;;;5047715;28;20041;-81
2023/12/16 00:20:07;;;;;;;3.03;0.52;;;7.10;99.90;;;;;;5044099;28;20494;-82
2023/12/16 00:22:32;;;;;;;8.15;0.70;;;7.10;99.90;;;;;;5045675;28;20057;-80
2023/12/16 00:24:58;;;;;;;3.63;0.50;;;7.00;99.90;;;;;;5045308;28;20075;-81
2023/12/16 00:27:23;;;;;;;1.80;0.40;;;7.10;99.90;;;;;;5033523;28;20024;-82
2023/12/16 00:29:49;;;;;;;5.32;0.50;;;7.10;99.90;;;;;;5045540;28;20049;-82
2023/12/16 00:32:15;;;;;;;3.55;0.47;;;7.10;99.90;;;;;;5045454;28;20017;-82
2023/12/16 00:34:40;;;;;;;4.68;0.30;;;7.10;99.90;;;;;;5036015;28;20523;-82
2023/12/16 00:37:06;;;;;;;3.13;0.40;;;7.10;99.90;;;;;;5047370;28;20116;-82
2023/12/16 00:39:32;;;;;;;5.38;0.40;;;7.10;99.90;;;;;;5044484;28;20032;-81
2023/12/16 00:41:59;;;;;;;6.28;0.57;;;7.10;99.90;;;;;;5048383;28;20489;-81
2023/12/16 00:44:24;;;;;;;1.48;0.30;;;7.10;99.90;;;;;;5036113;28;20501;-81
2023/12/16 00:46:50;;;;;;;3.13;0.43;;;7.10;99.90;;;;;;5030588;28;20025;-81
2023/12/16 00:49:15;;;;;;;3.55;0.32;;;7.10;99.90;;;;;;5078559;28;20033;-81
2023/12/16 00:51:41;;;;;;;1.48;0.30;;;7.10;99.90;;;;;;5063836;28;20025;-82
2023/12/16 00:54:07;;;;;;;2.25;0.30;;;7.10;99.90;;;;;;5045444;28;20017;-81
2023/12/16 00:56:33;;;;;;;2.47;0.30;;;7.10;99.90;;;;;;5047341;28;20478;-81
2023/12/16 00:58:58;;;;;;;4.07;0.50;;;7.10;99.90;;;;;;5036321;28;20426;-82
2023/12/16 01:01:24;;;;;;;5.15;0.40;;;7.10;99.90;;;;;;5039602;28;20416;-81
2023/12/16 01:03:50;;;;;;;3.38;0.40;;;7.10;99.90;;;;;;5034981;28;20029;-82
2023/12/16 01:06:15;;;;;;;2.38;0.35;;;7.10;99.90;;;;;;5042736;28;20051;-81
2023/12/16 01:08:42;;;;;;;3.47;0.38;;;7.10;99.90;;;;;;5067705;28;20225;-81
2023/12/16 01:11:11;;;;;;;2.42;0.30;;;7.10;99.90;;;;;;5052346;28;20113;-81
2023/12/16 01:13:37;;;;;;;2.47;0.30;;;7.10;99.90;;;;;;5045542;28;20021;-81
2023/12/16 01:16:03;;;;;;;4.32;0.70;;;7.10;99.90;;;;;;5052152;28;20039;-80
2023/12/16 01:18:29;;;;;;;4.93;0.40;;;7.10;99.90;;;;;;5067632;28;20540;-81
2023/12/16 01:20:55;;;;;;;3.85;0.40;;;7.10;99.90;;;;;;5030435;28;20151;-80
2023/12/16 01:23:21;;;;;;;3.28;0.40;;;7.10;99.90;;;;;;5033064;28;20059;-80
2023/12/16 01:25:47;;;;;;;4.43;0.30;;;7.10;99.90;;;;;;5079104;28;20035;-80
2023/12/16 01:28:13;;;;;;;5.47;0.60;;;7.10;99.90;;;;;;5031196;28;20029;-81
2023/12/16 01:30:39;;;;;;;2.40;0.40;;;7.10;99.90;;;;;;5040211;28;20135;-82
2023/12/16 01:33:04;;;;;;;2.88;0.40;;;7.10;99.90;;;;;;5045686;28;20031;-81
2023/12/16 01:35:30;;;;;;;4.07;0.40;;;7.10;99.90;;;;;;5047755;28;20045;-82
2023/12/16 01:37:56;;;;;;;3.80;0.30;;;7.10;99.90;;;;;;5047468;28;20043;-81
2023/12/16 01:40:21;;;;;;;4.75;0.50;;;7.10;99.90;;;;;;5050725;28;20048;-81
2023/12/16 01:42:47;;;;;;;5.18;0.40;;;7.00;99.90;;;;;;5050781;28;20025;-81
2023/12/16 01:45:15;;;;;;;1.85;0.30;;;7.10;99.90;;;;;;5049105;28;20103;-82
2023/12/16 01:47:41;;;;;;;3.65;0.57;;;7.00;99.90;;;;;;5046066;28;20017;-81
2023/12/16 01:50:07;;;;;;;2.20;0.30;;;7.10;99.90;;;;;;5048568;28;20029;-81
2023/12/16 01:52:34;;;;;;;2.20;0.50;;;7.00;99.90;;;;;;5049160;28;20021;-81
2023/12/16 01:55:00;;;;;;;2.90;0.30;;;7.10;99.90;;;;;;5050364;28;20108;-82
2023/12/16 01:57:26;;;;;;;2.97;0.40;;;7.00;99.90;;;;;;5040542;28;20555;-80
2023/12/16 01:59:51;;;;;;;6.95;0.60;;;7.00;99.90;;;;;;5048096;28;20017;-81
2023/12/16 02:02:18;;;;;;;6.13;0.60;;;7.00;99.90;;;;;;5034477;28;20033;-80
2023/12/16 02:04:44;;;;;;;5.00;0.70;;;7.00;99.90;;;;;;5064070;28;20029;-81
2023/12/16 02:07:10;;;;;;;4.00;0.50;;;6.90;99.90;;;;;;5077434;28;20025;-80
2023/12/16 02:09:36;;;;;;;4.40;1.10;;;6.80;99.90;;;;;;5050214;28;20056;-81
2023/12/16 02:12:02;;;;;;;2.50;0.50;;;6.80;99.90;;;;;;5037458;28;20036;-81
2023/12/16 02:14:28;;;;;;;2.10;0.43;;;6.70;99.90;;;;;;5046684;28;20078;-81
2023/12/16 02:16:54;;;;;;;4.32;0.32;;;6.70;99.90;;;;;;5050224;28;20033;-82
2023/12/16 02:19:25;;;;;;;5.22;0.70;;;6.60;99.90;;;;;;5063485;28;20025;-81
2023/12/16 02:21:51;;;;;;;3.42;0.55;;;6.60;99.90;;;;;;5039908;28;20029;-81
2023/12/16 02:24:17;;;;;;;3.00;0.40;;;6.60;99.90;;;;;;5029570;28;20025;-81
2023/12/16 02:26:43;;;;;;;2.42;0.40;;;6.60;99.90;;;;;;5050117;28;20032;-82
2023/12/16 02:29:09;;;;;;;3.45;0.40;;;6.60;99.90;;;;;;5048443;28;20492;-81
2023/12/16 02:31:34;;;;;;;3.40;0.50;;;6.60;99.90;;;;;;5049809;28;20080;-81
2023/12/16 02:34:00;;;;;;;4.40;0.40;;;6.50;99.90;;;;;;5038134;28;20108;-82
2023/12/16 02:36:26;;;;;;;4.78;0.60;;;6.50;99.90;;;;;;5049934;28;20029;-82
2023/12/16 02:38:51;;;;;;;4.28;0.70;;;6.50;99.90;;;;;;5050619;28;20090;-81
2023/12/16 02:41:17;;;;;;;3.80;0.73;;;6.50;99.90;;;;;;5049283;28;20641;-81
2023/12/16 02:43:43;;;;;;;3.65;0.63;;;6.50;99.90;;;;;;5050103;28;20042;-80
2023/12/16 02:46:09;;;;;;;5.95;0.80;;;6.50;99.90;;;;;;5048493;28;20539;-81
2023/12/16 02:48:35;;;;;;;7.22;1.02;;;6.50;99.90;;;;;;5050193;28;20396;-81
2023/12/16 02:51:00;;;;;;;4.25;0.60;;;6.50;99.90;;;;;;5046933;28;20021;-81
2023/12/16 02:53:27;;;;;;;5.47;0.90;;;6.50;99.90;;;;;;5044246;28;20030;-81
2023/12/16 02:55:52;;;;;;;3.78;0.90;;;6.50;99.90;;;;;;5060416;28;20477;-81
2023/12/16 02:58:19;;;;;;;3.63;0.90;;;6.40;99.90;;;;;;5047836;28;20103;-80
2023/12/16 03:00:44;;;;;;;5.75;1.10;;;6.30;99.90;;;;;;5080099;28;20025;-81
2023/12/16 03:03:10;;;;;;;3.60;0.70;;;6.30;99.90;;;;;;5047663;28;20021;-81
2023/12/16 03:05:36;;;;;;;4.97;0.88;;;6.20;99.90;;;;;;5066496;28;20079;-81
2023/12/16 03:08:02;;;;;;;3.10;0.95;;;6.20;99.90;;;;;;5033597;28;20477;-81
2023/12/16 03:10:28;;;;;;;5.05;0.80;;;6.10;99.90;;;;;;5046810;28;20043;-81
2023/12/16 03:12:53;;;;;;;4.53;0.95;;;6.10;99.90;;;;;;5029621;28;20032;-81
2023/12/16 03:15:19;;;;;;;6.82;0.85;;;6.00;99.90;;;;;;5039128;28;20086;-81
2023/12/16 03:17:45;;;;;;;2.42;0.70;;;6.00;99.90;;;;;;5047566;28;20029;-81
2023/12/16 03:20:11;;;;;;;5.13;0.75;;;6.00;99.90;;;;;;5048571;28;20091;-80
2023/12/16 03:22:37;;;;;;;5.00;0.70;;;6.00;99.90;;;;;;5048800;28;20618;-81
2023/12/16 03:25:03;;;;;;;4.45;0.88;;;6.00;99.90;;;;;;5045655;28;20450;-81
2023/12/16 03:27:29;;;;;;;3.67;0.77;;;6.00;99.90;;;;;;5035411;28;20523;-82
2023/12/16 03:29:54;;;;;;;2.63;0.70;;;5.90;99.90;;;;;;5046424;28;20424;-80
2023/12/16 03:32:20;;;;;;;3.45;0.70;;;5.90;99.90;;;;;;5046207;28;20121;-81
2023/12/16 03:34:46;;;;;;;5.93;0.85;;;5.80;99.90;;;;;;5044895;28;20131;-82
2023/12/16 03:37:12;;;;;;;5.63;1.98;;;5.80;99.90;;;;;;5065475;28;20025;-81
2023/12/16 03:39:40;;;;;;;3.55;0.70;;;5.80;99.90;;;;;;5049469;28;20143;-81
2023/12/16 03:42:06;;;;;;;4.05;0.82;;;5.80;99.90;;;;;;5032576;28;20029;-82
2023/12/16 03:44:33;;;;;;;4.15;0.63;;;5.90;99.90;;;;;;5028957;28;20028;-80
2023/12/16 03:46:58;;;;;;;8.15;0.80;;;5.80;99.90;;;;;;5079107;28;20057;-82
2023/12/16 03:49:24;;;;;;;4.20;0.70;;;5.70;99.90;;;;;;5049114;28;20059;-82
2023/12/16 03:51:50;;;;;;;6.93;0.90;;;5.70;99.90;;;;;;5046482;28;20052;-81
2023/12/16 03:54:16;;;;;;;4.70;0.70;;;5.70;99.90;;;;;;5037264;28;20013;-81
2023/12/16 03:56:41;;;;;;;4.30;0.65;;;5.70;99.90;;;;;;5055945;28;20060;-81
2023/12/16 03:59:07;;;;;;;4.22;0.80;;;5.70;99.90;;;;;;5045006;28;20477;-81
2023/12/16 04:01:32;;;;;;;4.18;0.70;;;5.70;99.90;;;;;;5047554;28;20032;-81
2023/12/16 04:03:59;;;;;;;2.97;0.60;;;5.60;99.90;;;;;;5048649;28;20370;-81
2023/12/16 04:06:25;;;;;;;6.30;0.80;;;5.60;99.90;;;;;;5062838;28;20090;-82
2023/12/16 04:08:51;;;;;;;7.13;1.08;;;5.60;99.90;;;;;;5047362;28;20025;-81
2023/12/16 04:11:17;;;;;;;4.47;0.60;;;5.60;99.90;;;;;;5062146;28;20028;-82
2023/12/16 04:13:42;;;;;;;4.03;0.80;;;5.60;99.90;;;;;;5038506;28;20025;-82
2023/12/16 04:16:08;;;;;;;4.45;0.60;;;5.70;99.90;;;;;;5047991;28;20500;-80
2023/12/16 04:18:34;;;;;;;5.05;0.70;;;5.60;99.90;;;;;;5046449;28;20029;-81
2023/12/16 04:21:01;;;;;;;5.95;1.20;;;5.80;99.90;;;;;;5048075;28;20047;-82
2023/12/16 04:23:27;;;;;;;5.35;0.85;;;5.80;99.90;;;;;;5059626;28;20485;-81
2023/12/16 04:25:53;;;;;;;3.28;0.60;;;5.80;99.90;;;;;;5047539;28;20036;-82
2023/12/16 04:28:19;;;;;;;7.43;0.93;;;5.80;99.90;;;;;;5044325;28;20393;-82
2023/12/16 04:30:44;;;;;;;4.13;0.52;;;5.80;99.90;;;;;;5047281;28;20049;-83
2023/12/16 04:33:10;;;;;;;4.97;0.80;;;5.70;99.90;;;;;;5042706;28;20059;-82
2023/12/16 04:35:36;;;;;;;3.83;0.60;;;5.80;99.90;;;;;;5079516;28;20091;-81
2023/12/16 04:38:01;;;;;;;5.07;0.82;;;5.80;99.90;;;;;;5047145;28;20025;-83
2023/12/16 04:40:27;;;;;;;3.65;0.60;;;5.80;99.90;;;;;;5038435;28;20182;-80
2023/12/16 04:42:53;;;;;;;4.57;0.52;;;5.90;99.90;;;;;;5045391;28;20070;-81
2023/12/16 04:45:20;;;;;;;4.70;0.60;;;5.90;99.90;;;;;;5077696;28;20078;-80
2023/12/16 04:47:45;;;;;;;5.22;0.73;;;6.00;99.90;;;;;;5036333;28;20036;-80
2023/12/16 04:50:11;;;;;;;5.55;0.65;;;6.00;99.90;;;;;;5036292;28;20033;-81
2023/12/16 04:52:37;;;;;;;2.78;0.50;;;6.00;99.90;;;;;;5078450;28;20021;-81
2023/12/16 04:55:03;;;;;;;4.90;0.70;;;6.10;99.90;;;;;;5047890;28;20056;-81
2023/12/16 04:57:29;;;;;;;7.07;0.90;;;6.10;99.90;;;;;;5045838;28;20336;-81
2023/12/16 04:59:54;;;;;;;5.43;0.60;;;6.10;99.90;;;;;;5062807;28;20052;-81
2023/12/16 05:02:20;;;;;;;5.30;0.60;;;6.10;99.90;;;;;;5043636;28;20075;-81
2023/12/16 05:04:46;;;;;;;5.50;0.73;;;6.00;99.90;;;;;;5078220;28;20036;-82
2023/12/16 05:07:11;;;;;;;8.40;0.70;;;6.00;99.90;;;;;;5074807;28;20017;-81
2023/12/16 05:09:37;;;;;;;6.20;1.40;;;6.00;99.90;;;;;;5046983;28;20389;-81
2023/12/16 05:12:03;;;;;;;3.70;0.60;;;5.90;99.90;;;;;;5077604;28;20197;-81
2023/12/16 05:14:29;;;;;;;2.92;0.52;;;5.90;99.90;;;;;;5078274;28;20526;-81
2023/12/16 05:16:55;;;;;;;4.32;0.68;;;5.80;99.90;;;;;;5045723;28;20025;-81
2023/12/16 05:19:20;;;;;;;3.90;0.60;;;5.80;99.90;;;;;;5046718;28;20389;-81
2023/12/16 05:21:46;;;;;;;5.53;0.70;;;5.70;99.90;;;;;;5038066;28;20029;-81
2023/12/16 05:24:12;;;;;;;5.07;0.50;;;5.60;99.90;;;;;;5042646;28;20108;-80
2023/12/16 05:26:37;;;;;;;3.35;0.60;;;5.60;99.90;;;;;;5077443;28;20028;-82
2023/12/16 05:29:04;;;;;;;3.97;1.27;;;5.60;99.90;;;;;;5046470;28;20021;-83
2023/12/16 05:31:29;;;;;;;2.67;0.50;;;5.50;99.90;;;;;;5029094;28;20077;-81
2023/12/16 05:33:55;;;;;;;4.15;0.60;;;5.50;99.90;;;;;;5046761;28;20102;-82
2023/12/16 05:36:20;;;;;;;1.73;0.40;;;5.40;99.90;;;;;;5045592;28;20033;-81
2023/12/16 05:38:46;;;;;;;5.63;0.50;;;5.40;99.90;;;;;;5031851;28;20033;-81
2023/12/16 05:41:14;;;;;;;2.58;0.47;;;5.50;99.90;;;;;;5046704;28;20032;-81
2023/12/16 05:43:39;;;;;;;4.75;0.68;;;5.50;99.90;;;;;;5036438;28;20025;-81
2023/12/16 05:46:05;;;;;;;3.28;0.80;;;5.50;99.90;;;;;;5040690;28;20025;-81
2023/12/16 05:48:31;;;;;;;2.15;0.50;;;5.50;99.90;;;;;;5045841;28;20132;-82
2023/12/16 05:50:57;;;;;;;2.72;0.50;;;5.50;99.90;;;;;;5079489;28;20035;-82
2023/12/16 05:53:22;;;;;;;4.30;0.70;;;5.50;99.90;;;;;;5043685;28;20028;-81
2023/12/16 05:55:48;;;;;;;4.93;0.85;;;5.50;99.90;;;;;;5051418;28;20036;-81
2023/12/16 05:58:14;;;;;;;2.92;0.60;;;5.50;99.90;;;;;;5079400;28;20056;-81
2023/12/16 06:00:40;;;;;;;2.95;0.57;;;5.40;99.90;;;;;;5050340;28;20497;-81
2023/12/16 06:03:06;;;;;;;7.03;0.70;;;5.40;99.90;;;;;;5036026;28;20036;-81
2023/12/16 06:05:31;;;;;;;2.47;0.45;;;5.30;99.90;;;;;;5051763;28;20037;-81
2023/12/16 06:07:57;;;;;;;6.82;0.85;;;5.20;99.90;;;;;;5075745;28;20381;-81
2023/12/16 06:10:22;;;;;;;2.50;0.60;;;5.30;99.90;;;;;;5048873;28;20029;-80
2023/12/16 06:12:48;;;;;;;3.35;0.50;;;5.30;99.90;;;;;;5047387;28;20024;-83
2023/12/16 06:15:14;;;;;;;3.67;0.60;;;5.20;99.90;;;;;;5050663;28;20025;-82
2023/12/16 06:17:40;;;;;;;5.80;0.63;;;5.10;99.90;;;;;;5036010;28;20604;-81
2023/12/16 06:20:06;;;;;;;3.72;0.77;;;5.20;99.90;;;;;;5050295;28;20116;-81
2023/12/16 06:22:32;;;;;;;5.05;0.70;;;5.30;99.90;;;;;;5050286;28;20036;-80
2023/12/16 06:25:00;;;;;;;5.80;0.85;;;5.20;99.90;;;;;;5037459;28;20087;-80
2023/12/16 06:27:26;;;;;;;3.40;0.55;;;5.30;99.90;;;;;;5050375;28;20037;-80
2023/12/16 06:29:51;;;;;;;5.28;0.70;;;5.20;99.90;;;;;;5047055;28;20060;-80
2023/12/16 06:32:17;;;;;;;4.55;0.80;;;5.20;99.90;;;;;;5064647;28;20021;-81
2023/12/16 06:34:42;;;;;;;3.78;0.57;;;5.10;99.90;;;;;;5077921;28;20034;-80
2023/12/16 06:37:08;;;;;;;4.00;0.68;;;5.30;99.90;;;;;;5038518;28;20039;-81
2023/12/16 06:39:34;;;;;;;7.65;0.80;;;5.30;99.90;;;;;;5047045;28;20056;-80
2023/12/16 06:41:59;;;;;;;5.25;0.55;;;5.30;99.90;;;;;;5048752;28;20120;-80
2023/12/16 06:44:25;;;;;;;5.45;0.90;;;5.30;99.90;;;;;;5036597;28;20033;-81
2023/12/16 06:46:51;;;;;;;5.28;0.70;;;5.30;99.90;;;;;;5047376;28;20454;-80
2023/12/16 06:49:16;;;;;;;5.20;0.63;;;5.30;99.90;;;;;;5046261;28;20057;-81
2023/12/16 06:51:42;;;;;;;3.55;0.47;;;5.20;99.90;;;;;;5048933;28;20120;-83
2023/12/16 06:54:07;;;;;;;3.15;1.02;;;5.20;99.90;;;;;;5041469;28;20052;-80
2023/12/16 06:56:33;;;;;;;3.05;0.55;;;5.10;99.90;;;;;;5046490;28;20120;-81
2023/12/16 06:58:59;;;;;;;6.57;0.82;;;5.10;99.90;;;;;;5049817;28;20112;-81
2023/12/16 07:01:25;;;;;;;6.82;0.75;;;5.20;99.90;;;;;;5049083;28;20087;-81
2023/12/16 07:03:50;;;;;;;2.83;0.70;;;5.20;99.90;;;;;;5047354;28;20029;-81
2023/12/16 07:06:20;;;;;;;5.43;0.73;;;5.20;99.90;;;;;;5047421;28;20369;-82
2023/12/16 07:08:45;;;;;;;3.88;0.50;;;5.20;99.90;;;;;;5049633;28;20020;-80
2023/12/16 07:11:14;;;;;;;4.20;0.57;;;5.10;99.90;;;;;;5035210;28;20401;-80
2023/12/16 07:13:40;;;;;;;4.07;0.50;;;5.10;99.90;;;;;;5040001;28;20042;-81
2023/12/16 07:16:06;;;;;;;6.05;0.60;;;5.00;99.90;;;;;;5076715;28;20781;-80
2023/12/16 07:18:32;;;;;;;2.80;0.50;;;5.00;99.90;;;;;;5060104;28;20078;-81
2023/12/16 07:20:58;;;;;;;6.03;0.90;;;5.00;99.90;;;;;;5060664;28;20033;-83
2023/12/16 07:23:24;;;;;;;3.05;0.60;;;5.00;99.90;;;;;;5048381;28;20029;-83
2023/12/16 07:25:53;;;;;;;4.63;0.70;;;4.90;99.90;;;;;;5049417;28;20041;-81
2023/12/16 07:28:21;;;;;;;6.00;1.15;;;4.90;99.90;;;;;;5048979;28;20060;-81
2023/12/16 07:30:47;;;;;;;3.65;0.50;;;5.00;99.90;;;;;;5042304;28;20053;-80
2023/12/16 07:33:12;;;;;;;3.38;0.50;;;5.10;99.90;;;;;;5046810;28;20431;-83
2023/12/16 07:35:38;;;;;;;3.90;0.50;;;5.00;99.90;;;;;;5043813;28;20036;-81
2023/12/16 07:38:04;;;;;;;6.00;0.60;;;4.90;99.90;;;;;;5049140;28;20036;-81
2023/12/16 07:40:31;;;;;;;5.20;0.60;;;5.00;99.90;;;;;;5037710;28;20488;-83
2023/12/16 07:42:57;;;;;;;4.20;0.50;;;5.00;99.90;;;;;;5040758;28;20044;-83
2023/12/16 07:45:23;;;;;;;4.68;0.50;;;5.00;99.90;;;;;;5046095;28;20021;-80
2023/12/16 07:47:48;;;;;;;3.13;0.50;;;5.20;99.90;;;;;;5036258;28;20040;-83
2023/12/16 07:50:16;;;;;;;3.00;0.40;;;5.20;99.90;;;;;;5035899;28;20104;-81
2023/12/16 07:52:44;;;;;;;6.70;1.05;;;5.20;99.90;;;;;;5043890;28;20037;-81
2023/12/16 07:55:10;;;;;;;2.67;0.60;;;5.20;99.90;;;;;;5045695;28;20036;-80
2023/12/16 07:57:35;;;;;;;4.97;0.88;;;5.20;99.90;;;;;;5045904;28;20382;-82
2023/12/16 08:00:01;;;;;;;4.32;0.52;;;5.40;99.90;;;;;;5049050;28;20556;-84
2023/12/16 08:02:31;;;;;;;6.30;0.50;;;5.40;99.90;;;;;;5072334;28;20040;-81
2023/12/16 08:04:57;;;;;;;4.47;0.98;;;5.40;99.90;;;;;;5046333;28;20030;-82
2023/12/16 08:07:23;;;;;;;5.35;0.80;;;5.50;99.90;;;;;;5080737;28;20021;-81
2023/12/16 08:09:49;;;;;;;8.07;0.80;;;5.50;99.90;;;;;;5046276;28;20032;-81
2023/12/16 08:12:15;;;;;;;4.78;0.50;;;5.60;99.90;;;;;;5035430;28;20028;-80
2023/12/16 08:14:40;;;;;;;7.97;0.93;;;5.60;99.90;;;;;;5046933;28;20039;-81
2023/12/16 08:17:06;;;;;;;5.88;0.80;;;5.70;99.90;;;;;;5080397;28;20021;-81
2023/12/16 08:19:32;;;;;;;5.28;0.70;;;5.60;99.90;;;;;;5028999;28;20037;-82
2023/12/16 08:22:00;;;;;;;6.00;1.10;;;5.70;99.90;;;;;;5047281;28;20547;-81
2023/12/16 08:24:26;;;;;;;6.47;1.10;;;5.60;99.90;;;;;;5079540;28;20055;-82
2023/12/16 08:26:51;;;;;;;5.07;0.85;;;5.70;99.90;;;;;;5023512;28;20061;-81
2023/12/16 08:29:18;;;;;;;10.80;1.20;;;5.70;99.90;;;;;;5047201;28;20469;-81
2023/12/16 08:31:45;;;;;;;9.00;1.30;;;5.70;99.90;;;;;;5062765;28;20052;-82
2023/12/16 08:34:10;;;;;;;5.95;0.77;;;5.70;99.90;;;;;;5034755;28;20056;-82
2023/12/16 08:36:36;;;;;;;5.88;0.85;;;5.80;99.90;;;;;;5073688;28;20061;-83
2023/12/16 08:39:02;;;;;;;5.03;0.82;;;5.70;99.90;;;;;;5061736;28;20029;-81
2023/12/16 08:41:27;;;;;;;5.63;1.15;;;5.80;99.90;;;;;;5045914;28;20033;-83
2023/12/16 08:43:54;;;;;;;5.70;0.88;;;5.80;99.90;;;;;;5045489;28;20021;-82
2023/12/16 08:46:23;;;;;;;7.45;1.15;;;5.80;99.90;;;;;;5076326;28;20155;-82
2023/12/16 08:48:49;;;;;;;7.60;1.00;;;6.00;99.90;;;;;;5025476;28;20032;-83
2023/12/16 08:51:21;;;;;;;4.88;0.90;;;6.10;99.90;;;;;;5043360;28;20043;-83
2023/12/16 08:53:47;;;;;;;6.18;0.73;;;6.20;99.90;;;;;;5078380;28;20127;-82
2023/12/16 08:56:13;;;;;;;8.73;1.20;;;6.20;99.90;;;;;;5046812;28;20116;-82
2023/12/16 08:58:39;;;;;;;5.40;0.60;;;6.30;99.90;;;;;;5047935;28;20037;-82
2023/12/16 09:01:06;;;;;;;8.93;0.70;;;6.40;99.90;;;;;;5028920;28;20025;-81
2023/12/16 09:03:31;;;;;;;11.55;0.70;;;6.50;99.90;;;;;;5046445;28;20434;-81
2023/12/16 09:05:57;;;;;;;5.93;0.60;;;6.60;99.90;;;;;;5043879;28;20025;-80
2023/12/16 09:08:23;;;;;;;7.82;1.00;;;6.70;99.90;;;;;;5078497;28;20053;-82
2023/12/16 09:10:48;;;;;;;5.03;0.70;;;6.90;99.90;;;;;;5045223;28;20033;-81
2023/12/16 09:13:14;;;;;;;6.00;0.98;;;7.00;99.90;;;;;;5026621;28;20113;-81
2023/12/16 09:15:40;;;;;;;6.88;0.77;;;7.10;99.90;;;;;;5033788;28;20048;-81
2023/12/16 09:18:05;;;;;;;7.05;1.00;;;7.10;99.90;;;;;;5051739;28;20025;-81
2023/12/16 09:20:31;;;;;;;12.10;1.50;;;7.30;99.90;;;;;;5036961;28;20124;-80
2023/12/16 09:22:58;;;;;;;13.75;1.70;;;7.40;99.90;;;;;;5045193;28;20113;-81
2023/12/16 09:25:24;;;;;;;8.18;1.25;;;7.50;99.90;;;;;;5046229;28;20112;-82
2023/12/16 09:27:50;;;;;;;10.85;1.58;;;7.50;99.90;;;;;;5034415;28;20063;-83
2023/12/16 09:30:16;;;;;;;10.55;1.20;;;7.60;99.90;;;;;;5038932;28;20040;-81
2023/12/16 09:32:44;;;;;;;12.15;1.50;;;7.70;99.90;;;;;;5049345;28;20025;-79
2023/12/16 09:35:10;;;;;;;13.20;3.15;;;7.80;99.90;;;;;;5049862;28;20079;-80
2023/12/16 09:37:35;;;;;;;14.20;2.60;;;7.90;99.90;;;;;;5049899;28;20060;-80
2023/12/16 09:40:01;;;;;;;10.20;2.08;;;7.90;99.90;;;;;;5050553;28;20040;-80
2023/12/16 09:42:29;;;;;;;12.60;2.42;;;7.90;99.90;;;;;;5078754;28;20021;-80
2023/12/16 09:44:59;;;;;;;9.88;1.65;;;7.90;99.90;;;;;;5050899;28;20541;-81
2023/12/16 09:47:25;;;;;;;16.00;2.40;;;8.00;99.90;;;;;;5066122;28;20028;-81
2023/12/16 09:50:00;;;;;;;9.43;2.25;;;8.00;99.90;;;;;;5048221;28;20086;-82
2023/12/16 09:52:29;;;;;;;13.63;2.97;;;8.00;99.90;;;;;;5054232;28;20355;-81
2023/12/16 09:54:55;;;;;;;14.30;3.78;;;8.00;99.90;;;;;;5044880;28;20813;-81
2023/12/16 09:57:22;;;;;;;12.68;2.90;;;8.00;99.90;;;;;;5050797;28;20025;-81
2023/12/16 09:59:48;;;;;;;11.07;2.08;;;8.00;99.90;;;;;;5047148;28;20729;-81
2023/12/16 10:02:45;;;;;;;16.15;4.32;;;8.00;99.90;;;;;;5044197;28;20090;-81
2023/12/16 10:05:11;;;;;;;14.95;3.97;;;8.00;99.90;;;;;;5044322;28;20045;-79
2023/12/16 10:07:39;;;;;;;14.52;4.55;;;8.00;99.90;;;;;;5033340;28;20032;-80
2023/12/16 10:10:05;;;;;;;20.80;5.18;;;8.00;99.90;;;;;;5080200;28;20047;-81
2023/12/16 10:12:34;;;;;;;19.63;6.38;;;8.00;99.90;;;;;;5030042;28;20382;-80
2023/12/16 10:14:59;;;;;;;17.67;4.15;;;8.00;99.90;;;;;;5049414;28;20166;-79
2023/12/16 10:17:26;;;;;;;17.55;5.18;;;8.00;99.90;;;;;;5048684;28;20112;-80
2023/12/16 10:19:51;;;;;;;12.65;4.32;;;8.00;99.90;;;;;;5039107;28;20021;-81
2023/12/16 10:22:18;;;;;;;21.30;5.47;;;8.00;99.90;;;;;;5049164;28;20435;-81
2023/12/16 10:24:47;;;;;;;14.43;5.28;;;8.00;99.90;;;;;;5047876;28;20119;-80
2023/12/16 10:27:15;;;;;;;20.15;7.10;;;8.00;99.90;;;;;;5045852;28;20112;-81
2023/12/16 10:29:41;;;;;;;15.30;4.53;;;8.10;99.90;;;;;;5080013;28;20036;-81
2023/12/16 10:32:11;;;;;;;19.05;5.25;;;8.10;99.90;;;;;;5072552;28;20059;-80
2023/12/16 10:34:38;;;;;;;21.58;6.38;;;8.10;99.90;;;;;;5034500;28;20571;-80
2023/12/16 10:37:07;;;;;;;19.45;6.57;;;8.10;99.90;;;;;;5051433;28;20044;-80
2023/12/16 10:39:34;;;;;;;18.75;5.82;;;8.20;99.90;;;;;;5053375;28;20049;-80
2023/12/16 10:42:00;;;;;;;18.58;6.22;;;8.10;99.90;;;;;;5044527;28;20025;-80
2023/12/16 10:44:26;;;;;;;16.85;5.35;;;8.20;99.90;;;;;;5048475;28;20666;-80
2023/12/16 10:46:54;;;;;;;13.85;5.60;;;8.20;99.90;;;;;;5037546;28;20037;-80
2023/12/16 10:49:30;;;;;;;16.58;5.60;;;8.20;99.90;;;;;;5043541;28;20025;-78
2023/12/16 10:52:06;;;;;;;16.88;5.60;;;8.20;99.90;;;;;;5048630;28;20151;-80
2023/12/16 10:54:47;;;;;;;15.25;5.78;;;8.30;99.90;;;;;;5035905;28;20029;-78
2023/12/16 10:57:50;;;;;;;24.70;8.27;;;8.30;99.90;;;;;;5064491;28;20032;-79
2023/12/16 11:00:23;;;;;;;19.85;6.93;;;8.30;99.90;;;;;;5047931;28;20083;-79
2023/12/16 11:03:10;;;;;;;16.35;6.97;;;8.40;99.90;;;;;;5037000;28;20029;-79
2023/12/16 11:05:48;;;;;;;12.35;5.90;;;8.40;99.90;;;;;;5047367;28;20036;-79
2023/12/16 11:08:15;;;;;;;13.90;5.22;;;8.40;99.90;;;;;;5040120;28;20421;-80
2023/12/16 11:10:41;;;;;;;16.50;6.18;;;8.50;99.90;;;;;;5047419;28;20032;-79
2023/12/16 11:13:08;;;;;;;17.05;6.00;;;8.50;99.90;;;;;;5044718;28;20051;-79
2023/12/16 11:15:34;;;;;;;13.77;5.45;;;8.50;99.90;;;;;;5045711;28;20037;-79
2023/12/16 11:18:29;;;;;;;13.25;5.57;;;8.50;99.90;;;;;;5044626;28;20032;-80
2023/12/16 11:21:04;;;;;;;12.68;4.05;;;8.50;99.90;;;;;;5059733;28;20021;-81
2023/12/16 11:23:30;;;;;;;10.02;4.13;;;8.50;99.90;;;;;;5047476;28;20037;-80
2023/12/16 11:26:00;;;;;;;10.43;3.58;;;8.60;99.90;;;;;;5045657;28;20078;-80
2023/12/16 11:28:27;;;;;;;11.45;4.07;;;8.60;99.90;;;;;;5044814;28;20057;-80
2023/12/16 11:31:03;;;;;;;20.30;5.28;;;8.60;99.90;;;;;;5047164;28;20050;-80
2023/12/16 11:33:43;;;;;;;9.90;4.22;;;8.60;99.90;;;;;;5035216;28;20043;-80
2023/12/16 11:36:09;;;;;;;6.18;3.30;;;8.60;99.90;;;;;;5062217;28;20075;-80
2023/12/16 11:38:35;;;;;;;10.57;3.50;;;8.70;99.90;;;;;;5046222;28;20437;-80
2023/12/16 11:41:00;;;;;;;11.13;4.35;;;8.70;99.90;;;;;;5074203;28;20039;-80
2023/12/16 11:44:02;;;;;;;10.68;4.47;;;8.70;99.90;;;;;;5078382;28;20029;-80
2023/12/16 11:46:42;;;;;;;11.25;3.78;;;8.80;99.90;;;;;;5003620;28;20454;-80
2023/12/16 11:49:10;;;;;;;;;;;8.80;99.90;;;;;;5041160;28;20037;-80
2023/12/16 11:51:38;;;;;;;11.90;4.03;;;8.80;99.90;;;;;;5046801;28;19905;-80
2023/12/16 11:54:04;;;;;;;9.15;3.03;;;8.80;99.90;;;;;;5044588;28;20510;-80
2023/12/16 11:56:30;;;;;;;10.63;3.50;;;8.90;99.90;;;;;;5078052;28;20327;-80
2023/12/16 11:58:57;;;;;;;8.30;3.67;;;8.90;99.90;;;;;;5044714;28;20017;-80
2023/12/16 12:01:33;;;;;;;14.27;5.90;;;8.90;99.90;;;;;;5041230;28;20396;-81
2023/12/16 12:04:02;;;;;;;7.78;3.45;;;9.00;99.90;;;;;;5044721;28;20028;-80
2023/12/16 12:06:29;;;;;;;14.70;3.85;;;9.00;99.90;;;;;;5075126;28;20025;-79
2023/12/16 12:08:54;;;;;;;17.70;5.68;;;9.00;99.90;;;;;;5044667;28;20086;-81
2023/12/16 12:11:21;;;;;;;12.43;5.32;;;9.00;99.90;;;;;;5045325;28;20024;-80
2023/12/16 12:13:50;;;;;;;9.48;3.80;;;9.00;99.90;;;;;;5047388;28;20037;-80
2023/12/16 12:16:15;;;;;;;11.40;4.47;;;9.00;99.90;;;;;;5032928;28;20047;-80
2023/12/16 12:18:41;;;;;;;10.48;4.70;;;9.00;99.90;;;;;;5061175;28;20100;-80
2023/12/16 12:21:09;;;;;;;10.48;5.03;;;9.00;99.90;;;;;;5045958;28;20362;-80
2023/12/16 12:23:36;;;;;;;19.15;5.70;;;9.00;99.90;;;;;;5059939;28;20365;-80
2023/12/16 12:26:03;;;;;;;11.13;4.68;;;9.00;99.90;;;;;;5035830;28;20386;-81
2023/12/16 12:28:29;;;;;;;15.68;5.28;;;9.00;99.90;;;;;;5043668;28;20469;-80
2023/12/16 12:31:06;;;;;;;12.90;5.80;;;9.00;99.90;;;;;;5022881;28;20048;-81
2023/12/16 12:33:33;;;;;;;13.15;6.25;;;9.00;99.90;;;;;;5043403;28;20028;-80
2023/12/16 12:35:58;;;;;;;7.68;3.90;;;9.10;99.90;;;;;;5046803;28;20033;-78
2023/12/16 12:38:25;;;;;;;10.23;4.72;;;9.00;99.90;;;;;;5075582;28;20079;-81
2023/12/16 12:41:03;;;;;;;10.23;4.43;;;9.00;99.90;;;;;;5045120;28;20112;-80
2023/12/16 12:43:30;;;;;;;11.40;5.15;;;9.00;99.90;;;;;;5042249;28;20869;-80
2023/12/16 12:46:06;;;;;;;10.23;4.05;;;9.00;99.90;;;;;;5045710;28;20021;-81
2023/12/16 12:48:32;;;;;;;5.28;3.20;;;9.00;99.90;;;;;;5046990;28;20040;-80
2023/12/16 12:51:08;;;;;;;9.18;3.45;;;9.00;99.90;;;;;;5047422;28;20374;-81
2023/12/16 12:53:35;;;;;;;8.05;4.35;;;9.00;99.90;;;;;;5037993;28;20044;-78